Time;durP1;ratioP1;P1;durP2;ratioP2;P2;SDS_P1;SDS_P2;PMS_P1;PMS_P2;Temp;Humidity;BMP_temperature;BMP_pressure;BME280_temperature;BME280_humidity;BME280_pressure;Samples;Min_cycle;Max_cycle;Signal;HPM_P1;HPM_P2
2023/08/13 00:02:08;;;;;;;12.18;2.60;;;16.10;99.90;;;;;;5058431;28;20049;-80
2023/08/13 00:04:34;;;;;;;16.60;2.97;;;16.10;99.90;;;;;;5046789;28;20388;-80
2023/08/13 00:07:00;;;;;;;11.48;2.60;;;16.10;99.90;;;;;;5056487;28;20095;-80
2023/08/13 00:09:26;;;;;;;11.38;2.83;;;16.10;99.90;;;;;;5061221;28;20861;-80
2023/08/13 00:11:53;;;;;;;5.22;2.45;;;16.00;99.90;;;;;;5060096;28;20040;-80
2023/08/13 00:14:19;;;;;;;12.65;2.83;;;16.00;99.90;;;;;;5057229;28;20068;-80
2023/08/13 00:16:45;;;;;;;13.85;3.10;;;16.00;99.90;;;;;;5058436;28;20089;-80
2023/08/13 00:19:11;;;;;;;8.68;2.38;;;16.00;99.90;;;;;;5058797;28;20501;-80
2023/08/13 00:21:36;;;;;;;6.82;2.00;;;16.90;99.90;;;;;;5056425;28;20071;-81
2023/08/13 00:24:02;;;;;;;17.20;2.92;;;16.40;99.90;;;;;;5086649;22;20091;-81
2023/08/13 00:26:31;;;;;;;8.80;2.30;;;16.00;99.90;;;;;;5072596;28;20040;-81
2023/08/13 00:28:57;;;;;;;11.63;2.53;;;16.00;99.90;;;;;;5066934;28;20054;-80
2023/08/13 00:31:22;;;;;;;9.10;2.78;;;16.00;99.90;;;;;;5068953;28;20113;-81
2023/08/13 00:33:48;;;;;;;12.38;2.53;;;16.00;99.90;;;;;;5067138;28;20131;-81
2023/08/13 00:36:13;;;;;;;8.45;2.55;;;15.90;99.90;;;;;;5067158;28;20130;-80
2023/08/13 00:38:39;;;;;;;13.63;2.03;;;16.00;99.90;;;;;;5068513;28;20097;-80
2023/08/13 00:41:05;;;;;;;8.45;2.10;;;15.90;99.90;;;;;;5068737;28;20369;-81
2023/08/13 00:43:31;;;;;;;12.98;2.40;;;16.00;99.90;;;;;;5067748;28;20164;-81
2023/08/13 00:45:58;;;;;;;10.23;2.13;;;16.00;99.90;;;;;;5068822;28;20123;-81
2023/08/13 00:48:23;;;;;;;11.98;2.58;;;15.90;99.90;;;;;;5068873;28;20087;-81
2023/08/13 00:50:50;;;;;;;11.20;2.40;;;15.90;99.90;;;;;;5066016;28;20436;-81
2023/08/13 00:53:17;;;;;;;12.88;3.05;;;15.90;99.90;;;;;;5068054;28;20055;-80
2023/08/13 00:55:43;;;;;;;8.18;2.05;;;15.90;99.90;;;;;;5068363;28;20036;-80
2023/08/13 00:58:09;;;;;;;11.98;3.10;;;17.00;99.90;;;;;;5067811;28;20048;-81
2023/08/13 01:00:34;;;;;;;15.48;3.05;;;15.90;99.90;;;;;;5068618;28;20048;-81
2023/08/13 01:03:00;;;;;;;13.77;3.40;;;15.90;99.90;;;;;;5067141;28;20123;-81
2023/08/13 01:05:49;;;;;;;13.38;2.60;;;15.80;99.90;;;;;;5065794;28;20130;-81
2023/08/13 01:08:30;;;;;;;13.23;2.85;;;15.80;99.90;;;;;;5072697;28;20033;-81
2023/08/13 01:11:17;;;;;;;15.27;3.10;;;15.80;99.90;;;;;;5075706;28;20040;-80
2023/08/13 01:13:52;;;;;;;14.70;2.97;;;15.80;99.90;;;;;;5069738;28;20044;-81
2023/08/13 01:16:20;;;;;;;13.07;3.38;;;15.80;99.90;;;;;;5072293;28;20124;-81
2023/08/13 01:18:46;;;;;;;11.10;2.72;;;15.80;99.90;;;;;;5053067;28;20037;-80
2023/08/13 01:21:12;;;;;;;11.23;2.92;;;15.80;99.90;;;;;;5072279;28;20060;-80
2023/08/13 01:23:38;;;;;;;10.40;2.67;;;15.80;99.90;;;;;;5069967;28;20361;-81
2023/08/13 01:26:11;;;;;;;11.30;2.65;;;15.80;99.90;;;;;;5071413;28;20054;-81
2023/08/13 01:28:46;;;;;;;15.68;3.47;;;15.70;99.90;;;;;;5071971;28;20128;-80
2023/08/13 01:31:20;;;;;;;12.00;3.17;;;15.80;99.90;;;;;;5071212;28;20048;-81
2023/08/13 01:33:46;;;;;;;;;;;15.70;99.90;;;;;;5064500;28;20041;-81
2023/08/13 01:36:16;;;;;;;15.52;3.38;;;15.70;99.90;;;;;;5069618;28;19966;-80
2023/08/13 01:38:43;;;;;;;13.00;3.08;;;15.70;99.90;;;;;;5062380;28;20095;-81
2023/08/13 01:41:08;;;;;;;8.90;2.70;;;15.70;99.90;;;;;;5069352;28;20538;-80
2023/08/13 01:43:37;;;;;;;16.30;3.28;;;15.70;99.90;;;;;;5059681;28;20106;-81
2023/08/13 01:46:03;;;;;;;12.07;3.42;;;15.60;99.90;;;;;;5067939;28;20454;-81
2023/08/13 01:48:28;;;;;;;16.52;3.08;;;15.60;99.90;;;;;;5071924;28;20040;-81
2023/08/13 01:50:54;;;;;;;11.35;2.97;;;15.60;99.90;;;;;;5071607;28;20090;-81
2023/08/13 01:53:20;;;;;;;10.88;3.22;;;15.70;99.90;;;;;;5069266;28;20460;-81
2023/08/13 01:55:45;;;;;;;14.70;3.92;;;15.60;99.90;;;;;;5065279;28;20033;-80
2023/08/13 01:58:11;;;;;;;12.82;2.45;;;15.60;99.90;;;;;;5067767;28;20041;-81
2023/08/13 02:00:37;;;;;;;11.50;2.55;;;15.60;99.90;;;;;;5073625;28;20044;-81
2023/08/13 02:03:03;;;;;;;14.95;3.30;;;15.60;99.90;;;;;;5070835;28;20048;-81
2023/08/13 02:05:28;;;;;;;17.85;3.55;;;15.60;99.90;;;;;;5071690;28;20044;-81
2023/08/13 02:07:54;;;;;;;10.30;2.72;;;15.60;99.90;;;;;;5070452;28;20106;-81
2023/08/13 02:10:20;;;;;;;12.80;2.90;;;15.60;99.90;;;;;;5072073;28;20048;-81
2023/08/13 02:12:45;;;;;;;12.50;3.60;;;15.60;99.90;;;;;;5071217;28;20047;-80
2023/08/13 02:15:11;;;;;;;11.63;3.15;;;15.60;99.90;;;;;;5069747;28;20563;-81
2023/08/13 02:17:37;;;;;;;10.43;3.20;;;15.60;99.90;;;;;;5062042;28;20121;-81
2023/08/13 02:20:03;;;;;;;11.90;3.05;;;15.60;99.90;;;;;;5070954;28;20040;-81
2023/08/13 02:22:28;;;;;;;12.52;3.78;;;15.60;99.90;;;;;;5069266;28;20101;-81
2023/08/13 02:24:54;;;;;;;11.63;3.05;;;15.60;99.90;;;;;;5070846;28;20116;-80
2023/08/13 02:27:19;;;;;;;19.60;3.95;;;15.70;99.90;;;;;;5069884;28;20055;-81
2023/08/13 02:29:45;;;;;;;19.60;3.10;;;16.40;99.90;;;;;;5070534;28;20045;-81
2023/08/13 02:32:11;;;;;;;13.45;3.30;;;15.60;99.90;;;;;;5070722;28;20488;-81
2023/08/13 02:34:45;;;;;;;11.23;2.78;;;15.60;99.90;;;;;;5070091;28;20045;-80
2023/08/13 02:37:10;;;;;;;;;;;15.60;99.90;;;;;;5071884;28;20536;-80
2023/08/13 02:39:36;;;;;;;13.35;3.13;;;15.60;99.90;;;;;;5069523;28;19926;-81
2023/08/13 02:42:02;;;;;;;15.25;3.42;;;15.60;99.90;;;;;;5070543;28;20090;-81
2023/08/13 02:44:29;;;;;;;13.88;2.95;;;15.50;99.90;;;;;;5070119;28;20041;-81
2023/08/13 02:46:54;;;;;;;11.48;3.10;;;15.60;99.90;;;;;;5071338;28;20029;-81
2023/08/13 02:49:20;;;;;;;17.38;4.07;;;15.60;99.90;;;;;;5076903;28;20106;-80
2023/08/13 02:51:46;;;;;;;12.07;2.85;;;15.60;99.90;;;;;;5080606;28;20045;-81
2023/08/13 02:54:11;;;;;;;16.75;4.10;;;15.60;99.90;;;;;;5065799;28;20099;-81
2023/08/13 02:56:38;;;;;;;14.90;3.65;;;15.50;99.90;;;;;;5070784;28;20044;-81
2023/08/13 02:59:04;;;;;;;12.55;3.28;;;15.50;99.90;;;;;;5070426;28;20048;-81
2023/08/13 03:01:29;;;;;;;12.70;3.30;;;15.60;99.90;;;;;;5069138;28;20681;-81
2023/08/13 03:03:58;;;;;;;12.05;3.05;;;15.60;99.90;;;;;;5069458;28;20480;-81
2023/08/13 03:06:25;;;;;;;18.25;3.30;;;15.60;99.90;;;;;;5070251;28;20123;-81
2023/08/13 03:08:50;;;;;;;12.35;3.03;;;15.50;99.90;;;;;;5068649;28;20535;-80
2023/08/13 03:11:17;;;;;;;15.55;3.17;;;16.60;99.90;;;;;;5069653;28;20622;-81
2023/08/13 03:13:43;;;;;;;13.80;3.20;;;15.90;99.90;;;;;;5069987;28;20048;-81
2023/08/13 03:16:09;;;;;;;14.15;3.00;;;15.50;99.90;;;;;;5068734;28;20126;-81
2023/08/13 03:18:35;;;;;;;11.20;2.80;;;15.50;99.90;;;;;;5052885;28;20114;-81
2023/08/13 03:21:00;;;;;;;15.90;3.50;;;15.50;99.90;;;;;;5069960;28;20052;-80
2023/08/13 03:23:27;;;;;;;17.55;3.67;;;15.50;99.90;;;;;;5051699;28;20045;-81
2023/08/13 03:25:53;;;;;;;14.70;3.40;;;15.50;99.90;;;;;;5067667;28;20448;-80
2023/08/13 03:28:18;;;;;;;12.43;2.83;;;15.60;99.90;;;;;;5068323;28;20040;-81
2023/08/13 03:30:44;;;;;;;10.45;2.40;;;15.60;99.90;;;;;;5069215;28;20044;-81
2023/08/13 03:33:10;;;;;;;15.98;3.33;;;15.50;99.90;;;;;;5069463;28;20048;-81
2023/08/13 03:35:37;;;;;;;14.85;3.47;;;15.50;99.90;;;;;;5069663;28;20040;-81
2023/08/13 03:38:03;;;;;;;17.38;3.35;;;15.50;99.90;;;;;;5069846;28;20555;-81
2023/08/13 03:40:29;;;;;;;12.23;3.33;;;15.50;99.90;;;;;;5070036;28;20033;-81
2023/08/13 03:42:55;;;;;;;21.92;4.13;;;15.50;99.90;;;;;;5068938;28;20381;-81
2023/08/13 03:45:20;;;;;;;10.50;2.88;;;15.50;99.90;;;;;;5068767;28;20513;-81
2023/08/13 03:47:46;;;;;;;12.98;3.60;;;15.60;99.90;;;;;;5069022;28;20128;-80
2023/08/13 03:50:11;;;;;;;17.58;3.08;;;15.50;99.90;;;;;;5069460;28;20128;-81
2023/08/13 03:52:37;;;;;;;14.65;4.00;;;15.50;99.90;;;;;;5068280;28;20120;-81
2023/08/13 03:55:03;;;;;;;17.48;3.47;;;15.50;99.90;;;;;;5068981;28;20044;-81
2023/08/13 03:57:29;;;;;;;16.75;3.70;;;15.50;99.90;;;;;;5051686;28;20059;-81
2023/08/13 03:59:55;;;;;;;15.90;3.38;;;16.40;99.90;;;;;;5068515;28;20032;-81
2023/08/13 04:02:20;;;;;;;15.13;3.33;;;15.60;99.90;;;;;;5068935;28;20052;-81
2023/08/13 04:04:46;;;;;;;17.05;3.63;;;15.60;99.90;;;;;;5068555;28;20044;-80
2023/08/13 04:07:12;;;;;;;11.38;2.83;;;15.60;99.90;;;;;;5059931;28;20037;-81
2023/08/13 04:09:37;;;;;;;18.50;4.50;;;15.60;99.90;;;;;;5068852;28;20039;-81
2023/08/13 04:12:03;;;;;;;16.83;3.85;;;16.00;99.90;;;;;;5062929;28;20036;-80
2023/08/13 04:14:29;;;;;;;19.63;3.80;;;15.70;99.90;;;;;;5065563;28;20097;-81
2023/08/13 04:16:55;;;;;;;16.17;3.55;;;15.70;99.90;;;;;;5057245;28;20045;-80
2023/08/13 04:19:20;;;;;;;15.75;3.60;;;15.70;99.90;;;;;;5058705;28;20748;-80
2023/08/13 04:21:46;;;;;;;15.85;3.10;;;15.70;99.90;;;;;;5052802;28;20056;-80
2023/08/13 04:24:11;;;;;;;17.52;4.13;;;15.80;99.90;;;;;;5060556;28;20081;-81
2023/08/13 04:26:37;;;;;;;15.25;3.70;;;15.80;99.90;;;;;;5067115;28;20079;-81
2023/08/13 04:29:03;;;;;;;12.73;3.53;;;15.80;99.90;;;;;;5068088;28;20067;-81
2023/08/13 04:31:28;;;;;;;22.27;4.03;;;15.80;99.90;;;;;;5071246;28;20088;-81
2023/08/13 04:33:54;;;;;;;20.33;4.13;;;15.80;99.90;;;;;;5079308;28;20028;-81
2023/08/13 04:36:20;;;;;;;16.52;3.95;;;15.80;99.90;;;;;;5076177;28;20542;-81
2023/08/13 04:38:45;;;;;;;14.85;3.85;;;15.80;99.90;;;;;;5069129;28;20028;-81
2023/08/13 04:41:11;;;;;;;12.82;3.83;;;15.80;99.90;;;;;;5068345;28;20047;-81
2023/08/13 04:43:37;;;;;;;13.07;3.28;;;15.80;99.90;;;;;;5068682;28;20212;-81
2023/08/13 04:46:02;;;;;;;14.77;3.05;;;15.90;99.90;;;;;;5068160;28;20044;-81
2023/08/13 04:48:47;;;;;;;13.73;3.95;;;15.90;99.90;;;;;;5068171;28;20041;-81
2023/08/13 04:51:18;;;;;;;15.55;3.28;;;15.90;99.90;;;;;;5066094;28;20049;-81
2023/08/13 04:53:45;;;;;;;15.65;3.95;;;15.90;99.90;;;;;;5067363;28;20101;-80
2023/08/13 04:56:31;;;;;;;15.45;3.20;;;15.90;99.90;;;;;;5071347;28;20104;-81
2023/08/13 04:58:57;;;;;;;17.17;4.15;;;15.90;99.90;;;;;;5069689;28;20045;-81
2023/08/13 05:01:27;;;;;;;14.05;3.72;;;15.90;99.90;;;;;;5071526;28;20060;-82
2023/08/13 05:03:55;;;;;;;13.85;2.88;;;15.90;99.90;;;;;;5053707;28;20045;-81
2023/08/13 05:06:22;;;;;;;10.80;2.85;;;15.90;99.90;;;;;;5068910;28;20094;-81
2023/08/13 05:08:47;;;;;;;12.30;3.67;;;15.90;99.90;;;;;;5067686;28;20033;-81
2023/08/13 05:11:13;;;;;;;13.25;3.22;;;15.90;99.90;;;;;;5067876;28;20456;-81
2023/08/13 05:13:39;;;;;;;15.45;2.85;;;15.90;99.90;;;;;;5068378;28;20568;-81
2023/08/13 05:16:05;;;;;;;18.95;3.75;;;15.80;99.90;;;;;;5061925;28;20063;-82
2023/08/13 05:18:31;;;;;;;16.15;4.07;;;16.00;99.90;;;;;;5072259;28;20116;-81
2023/08/13 05:20:56;;;;;;;13.05;3.28;;;16.00;99.90;;;;;;5068323;28;20128;-81
2023/08/13 05:23:22;;;;;;;14.00;2.63;;;16.00;99.90;;;;;;5066833;28;20127;-81
2023/08/13 05:25:47;;;;;;;14.77;3.38;;;16.20;99.90;;;;;;5060177;28;20683;-81
2023/08/13 05:28:13;;;;;;;11.93;2.58;;;16.00;99.90;;;;;;5071400;28;20101;-82
2023/08/13 05:30:39;;;;;;;12.23;2.90;;;16.10;99.90;;;;;;5070407;28;20119;-82
2023/08/13 05:33:05;;;;;;;14.38;3.15;;;16.10;99.90;;;;;;5069908;28;20044;-81
2023/08/13 05:35:31;;;;;;;11.48;2.90;;;16.10;99.90;;;;;;5069048;28;20051;-80
2023/08/13 05:37:57;;;;;;;9.65;3.00;;;16.20;99.90;;;;;;5067206;28;20045;-81
2023/08/13 05:40:22;;;;;;;12.85;3.15;;;16.10;99.90;;;;;;5069049;28;20051;-81
2023/08/13 05:42:49;;;;;;;12.63;3.58;;;16.10;99.90;;;;;;5067670;28;20052;-81
2023/08/13 05:45:15;;;;;;;13.27;2.92;;;16.10;99.90;;;;;;5068145;28;20072;-81
2023/08/13 05:47:41;;;;;;;13.15;3.35;;;16.10;99.90;;;;;;5069887;28;20057;-81
2023/08/13 05:50:07;;;;;;;11.82;3.40;;;16.20;99.90;;;;;;5069299;28;20058;-80
2023/08/13 05:52:33;;;;;;;11.95;3.40;;;16.20;99.90;;;;;;5068310;28;20055;-80
2023/08/13 05:54:59;;;;;;;7.63;3.33;;;16.20;99.90;;;;;;5071211;28;20037;-81
2023/08/13 05:57:24;;;;;;;15.00;3.35;;;16.20;99.90;;;;;;5071806;28;20049;-81
2023/08/13 05:59:50;;;;;;;11.18;3.47;;;16.20;99.90;;;;;;5070404;28;20043;-81
2023/08/13 06:02:16;;;;;;;13.13;3.10;;;16.20;99.90;;;;;;5071392;28;20048;-80
2023/08/13 06:04:42;;;;;;;11.30;3.03;;;16.20;99.90;;;;;;5071558;28;20044;-80
2023/08/13 06:07:08;;;;;;;13.45;3.83;;;16.20;99.90;;;;;;5070849;28;20085;-80
2023/08/13 06:09:34;;;;;;;11.60;3.38;;;16.20;99.90;;;;;;5071877;28;20041;-81
2023/08/13 06:12:00;;;;;;;10.38;3.25;;;16.40;99.90;;;;;;5073173;28;20041;-80
2023/08/13 06:14:26;;;;;;;14.80;3.28;;;16.20;99.90;;;;;;5074819;28;20036;-80
2023/08/13 06:16:51;;;;;;;13.70;3.50;;;16.20;99.90;;;;;;5081860;28;20048;-80
2023/08/13 06:19:18;;;;;;;13.57;4.10;;;16.20;99.90;;;;;;5074316;28;20033;-80
2023/08/13 06:21:43;;;;;;;11.95;3.97;;;16.60;99.90;;;;;;5069520;28;20080;-81
2023/08/13 06:24:09;;;;;;;16.45;4.70;;;16.20;99.90;;;;;;5068948;28;20053;-80
2023/08/13 06:26:36;;;;;;;12.90;5.18;;;16.20;99.90;;;;;;5071013;28;20361;-81
2023/08/13 06:29:02;;;;;;;16.58;4.47;;;16.30;99.90;;;;;;5063338;28;20041;-80
2023/08/13 06:31:27;;;;;;;15.10;4.40;;;16.30;99.90;;;;;;5071626;28;20032;-81
2023/08/13 06:33:53;;;;;;;13.95;4.22;;;16.60;99.90;;;;;;5062240;28;20499;-80
2023/08/13 06:36:19;;;;;;;14.35;4.07;;;16.40;99.90;;;;;;5071735;28;20048;-81
2023/08/13 06:38:45;;;;;;;16.10;3.90;;;16.40;99.90;;;;;;5071266;28;20068;-81
2023/08/13 06:41:11;;;;;;;10.75;3.22;;;16.50;99.90;;;;;;5065715;28;20133;-80
2023/08/13 06:43:38;;;;;;;17.77;5.25;;;16.50;99.90;;;;;;5068994;28;20122;-81
2023/08/13 06:46:04;;;;;;;13.85;4.00;;;16.60;99.90;;;;;;5077143;28;20170;-80
2023/08/13 06:48:32;;;;;;;13.88;4.75;;;16.70;99.90;;;;;;5070538;28;20532;-79
2023/08/13 06:50:58;;;;;;;12.13;3.45;;;16.60;99.90;;;;;;5062076;28;20064;-80
2023/08/13 06:53:25;;;;;;;14.45;4.38;;;16.60;99.90;;;;;;5063656;28;20052;-80
2023/08/13 06:55:51;;;;;;;15.75;3.63;;;16.60;99.90;;;;;;5067146;28;20614;-81
2023/08/13 06:58:17;;;;;;;11.48;3.75;;;16.60;99.90;;;;;;5070513;28;20048;-80
2023/08/13 07:00:43;;;;;;;18.98;4.32;;;16.60;99.90;;;;;;5069973;28;20043;-79
2023/08/13 07:03:09;;;;;;;15.75;4.15;;;16.70;99.90;;;;;;5068192;28;20036;-80
2023/08/13 07:05:36;;;;;;;14.98;4.78;;;16.70;99.90;;;;;;5069941;28;20043;-80
2023/08/13 07:08:02;;;;;;;17.13;4.00;;;16.80;99.90;;;;;;5069935;28;20396;-80
2023/08/13 07:10:28;;;;;;;18.88;3.50;;;16.80;99.90;;;;;;5070074;28;20066;-80
2023/08/13 07:12:54;;;;;;;14.55;4.03;;;16.80;99.90;;;;;;5068122;28;20053;-80
2023/08/13 07:15:20;;;;;;;18.60;4.35;;;17.10;99.90;;;;;;5069063;28;20118;-80
2023/08/13 07:17:46;;;;;;;15.45;4.53;;;17.00;99.90;;;;;;5067347;28;20040;-80
2023/08/13 07:20:13;;;;;;;20.25;4.60;;;17.00;99.90;;;;;;5069905;28;20040;-81
2023/08/13 07:22:45;;;;;;;15.75;4.20;;;17.00;99.90;;;;;;5068600;28;20040;-81
2023/08/13 07:25:12;;;;;;;14.93;3.95;;;17.10;99.90;;;;;;5071646;28;20063;-82
2023/08/13 07:27:42;;;;;;;9.80;3.22;;;17.10;99.90;;;;;;5070258;28;20097;-82
2023/08/13 07:30:10;;;;;;;19.98;4.53;;;17.20;99.90;;;;;;5072092;28;20044;-81
2023/08/13 07:32:37;;;;;;;12.50;3.95;;;17.20;99.90;;;;;;5062831;28;20044;-81
2023/08/13 07:35:07;;;;;;;15.00;3.92;;;17.30;99.90;;;;;;5070138;28;20063;-81
2023/08/13 07:37:35;;;;;;;13.95;3.35;;;17.40;99.90;;;;;;5058986;28;20029;-82
2023/08/13 07:40:04;;;;;;;13.02;4.20;;;17.40;99.90;;;;;;5069964;28;20041;-82
2023/08/13 07:42:31;;;;;;;13.73;3.45;;;17.50;99.90;;;;;;5069056;28;20081;-79
2023/08/13 07:44:56;;;;;;;10.70;3.38;;;17.60;99.90;;;;;;5065162;28;20593;-80
2023/08/13 07:47:22;;;;;;;11.52;3.47;;;17.20;99.90;;;;;;5065896;28;20041;-77
2023/08/13 07:49:48;;;;;;;12.57;3.28;;;17.70;99.90;;;;;;5059170;28;20090;-77
2023/08/13 07:52:13;;;;;;;17.17;3.85;;;17.80;99.90;;;;;;5068682;28;20044;-78
2023/08/13 07:54:39;;;;;;;11.07;3.20;;;17.80;99.90;;;;;;5068115;28;20086;-77
2023/08/13 07:57:05;;;;;;;14.95;3.50;;;17.90;99.90;;;;;;5073595;28;20036;-77
2023/08/13 07:59:30;;;;;;;17.92;4.43;;;18.00;99.90;;;;;;5078376;28;20503;-79
2023/08/13 08:01:56;;;;;;;13.77;3.03;;;18.10;99.90;;;;;;5074207;28;20533;-80
2023/08/13 08:04:22;;;;;;;9.90;3.35;;;18.20;99.90;;;;;;5064840;28;20048;-81
2023/08/13 08:06:48;;;;;;;8.90;2.80;;;18.20;99.90;;;;;;5064211;28;20044;-79
2023/08/13 08:09:13;;;;;;;13.15;2.95;;;18.30;99.90;;;;;;5058308;28;20162;-84
2023/08/13 08:11:39;;;;;;;14.30;3.13;;;18.40;99.90;;;;;;5060114;28;20139;-78
2023/08/13 08:14:04;;;;;;;15.18;3.20;;;18.40;99.90;;;;;;5060300;28;20040;-87
2023/08/13 08:16:30;;;;;;;12.68;3.10;;;18.40;99.90;;;;;;5068609;28;20516;-78
2023/08/13 08:18:56;;;;;;;12.40;3.17;;;18.40;99.90;;;;;;5060348;28;20091;-78
2023/08/13 08:21:21;;;;;;;15.10;3.03;;;18.40;99.90;;;;;;5068069;28;20037;-78
2023/08/13 08:23:47;;;;;;;9.18;2.45;;;18.40;99.90;;;;;;5051846;28;20041;-77
2023/08/13 08:26:13;;;;;;;12.55;3.05;;;18.60;99.90;;;;;;5068728;28;20092;-77
2023/08/13 08:28:38;;;;;;;9.15;2.80;;;18.40;99.90;;;;;;5068523;28;20072;-78
2023/08/13 08:31:04;;;;;;;14.93;2.85;;;18.50;99.90;;;;;;5071619;28;20059;-79
2023/08/13 08:33:30;;;;;;;12.15;2.83;;;18.50;99.90;;;;;;5067925;28;20041;-77
2023/08/13 08:35:55;;;;;;;12.63;2.55;;;18.60;99.90;;;;;;5043007;28;20037;-80
2023/08/13 08:38:21;;;;;;;9.52;3.03;;;18.60;99.90;;;;;;5068768;28;20052;-79
2023/08/13 08:40:48;;;;;;;9.23;2.38;;;18.60;99.90;;;;;;5059139;28;20393;-81
2023/08/13 08:43:16;;;;;;;17.48;4.55;;;18.80;99.90;;;;;;5068436;28;20051;-76
2023/08/13 08:45:43;;;;;;;12.23;3.05;;;18.70;99.90;;;;;;5068745;28;20090;-82
2023/08/13 08:48:11;;;;;;;11.63;2.38;;;18.70;99.90;;;;;;5061522;28;20040;-80
2023/08/13 08:50:37;;;;;;;10.07;1.98;;;18.80;99.90;;;;;;5061688;28;20068;-82
2023/08/13 08:53:04;;;;;;;9.32;2.00;;;18.90;99.90;;;;;;5064533;28;20067;-79
2023/08/13 08:55:30;;;;;;;11.45;2.08;;;18.90;99.90;;;;;;5064913;28;20040;-77
2023/08/13 08:57:56;;;;;;;9.77;1.88;;;19.00;99.90;;;;;;5068010;28;20048;-79
2023/08/13 09:00:22;;;;;;;8.00;2.40;;;19.00;99.90;;;;;;5065437;28;20041;-78
2023/08/13 09:02:49;;;;;;;9.25;2.45;;;19.00;99.90;;;;;;5062139;28;20029;-78
2023/08/13 09:05:16;;;;;;;12.15;2.72;;;19.10;99.90;;;;;;5064479;28;20075;-78
2023/08/13 09:07:44;;;;;;;8.73;2.05;;;19.10;99.90;;;;;;5066614;28;20032;-77
2023/08/13 09:10:11;;;;;;;12.30;2.20;;;19.30;99.90;;;;;;5064218;28;20054;-78
2023/08/13 09:12:41;;;;;;;8.25;1.48;;;19.20;99.90;;;;;;5064698;28;20531;-79
2023/08/13 09:15:09;;;;;;;8.93;1.55;;;19.30;99.90;;;;;;5066509;28;20128;-76
2023/08/13 09:17:35;;;;;;;12.23;2.08;;;19.40;99.90;;;;;;5066987;28;20090;-77
2023/08/13 09:20:18;;;;;;;8.52;2.08;;;19.40;99.90;;;;;;5064452;28;20079;-75
2023/08/13 09:22:48;;;;;;;9.10;2.45;;;19.40;99.90;;;;;;5066174;28;20480;-77
2023/08/13 09:25:17;;;;;;;10.77;2.13;;;19.50;99.90;;;;;;5059668;28;20573;-78
2023/08/13 09:27:43;;;;;;;10.77;2.30;;;19.50;99.90;;;;;;5066265;28;20036;-81
2023/08/13 09:30:19;;;;;;;5.75;2.00;;;19.50;99.90;;;;;;5071142;28;20072;-79
2023/08/13 09:32:48;;;;;;;9.75;1.60;;;19.60;99.90;;;;;;5071389;28;20029;-78
2023/08/13 09:35:15;;;;;;;4.50;1.50;;;19.60;99.90;;;;;;5071316;28;20087;-78
2023/08/13 09:37:41;;;;;;;8.85;2.15;;;19.70;99.90;;;;;;5071693;28;20147;-79
2023/08/13 09:40:07;;;;;;;8.25;1.52;;;19.80;99.90;;;;;;5080466;28;20076;-77
2023/08/13 09:42:36;;;;;;;5.63;1.70;;;19.90;99.90;;;;;;5080981;28;20475;-78
2023/08/13 09:45:03;;;;;;;9.57;1.73;;;19.90;99.90;;;;;;5072316;28;20435;-79
2023/08/13 09:47:32;;;;;;;6.70;1.45;;;20.00;99.90;;;;;;5072066;28;20044;-78
2023/08/13 09:50:01;;;;;;;7.78;1.17;;;20.10;99.90;;;;;;5070583;28;20107;-79
2023/08/13 09:52:30;;;;;;;11.35;1.95;;;20.00;99.90;;;;;;5071057;28;20063;-78
2023/08/13 09:55:12;;;;;;;9.98;1.65;;;20.10;99.90;;;;;;5071950;28;20063;-79
2023/08/13 09:57:40;;;;;;;4.43;1.27;;;20.10;99.90;;;;;;5071724;28;20056;-78
2023/08/13 10:00:11;;;;;;;9.75;1.55;;;20.00;99.90;;;;;;5071401;28;20120;-79
2023/08/13 10:02:39;;;;;;;7.60;1.60;;;20.00;99.90;;;;;;5071408;28;20047;-77
2023/08/13 10:05:06;;;;;;;11.48;1.42;;;20.00;99.90;;;;;;5070793;28;20044;-79
2023/08/13 10:07:32;;;;;;;9.25;2.00;;;20.00;99.90;;;;;;5070076;28;20484;-78
2023/08/13 10:09:59;;;;;;;8.55;1.40;;;20.10;99.90;;;;;;5071671;28;20111;-79
2023/08/13 10:12:25;;;;;;;12.25;1.70;;;20.10;99.90;;;;;;5070881;28;20561;-79
2023/08/13 10:14:51;;;;;;;6.40;1.27;;;20.00;99.90;;;;;;5071131;28;20052;-80
2023/08/13 10:17:19;;;;;;;5.75;1.42;;;20.00;99.90;;;;;;5071827;28;20044;-80
2023/08/13 10:19:51;;;;;;;8.90;1.60;;;20.00;99.90;;;;;;5070970;28;20036;-81
2023/08/13 10:22:31;;;;;;;6.57;2.05;;;20.10;99.90;;;;;;5071368;28;20040;-81
2023/08/13 10:24:57;;;;;;;7.43;2.03;;;20.10;99.90;;;;;;5071631;28;20048;-81
2023/08/13 10:27:23;;;;;;;10.15;2.08;;;20.10;99.90;;;;;;5070564;28;20071;-80
2023/08/13 10:29:48;;;;;;;8.20;2.03;;;20.00;99.90;;;;;;5070249;28;20476;-82
2023/08/13 10:32:16;;;;;;;8.60;1.60;;;20.00;99.90;;;;;;5071079;28;20060;-82
2023/08/13 10:34:50;;;;;;;6.05;1.58;;;20.00;99.90;;;;;;5073248;28;20085;-81
2023/08/13 10:37:18;;;;;;;7.63;1.70;;;20.10;99.90;;;;;;5073453;28;20067;-81
2023/08/13 10:40:02;;;;;;;6.10;1.73;;;20.10;99.90;;;;;;5071329;28;20032;-81
2023/08/13 10:42:33;;;;;;;;;;;20.10;99.90;;;;;;5064574;28;20429;-81
2023/08/13 10:45:04;;;;;;;6.55;1.67;;;20.20;99.90;;;;;;5072595;28;20010;-84
2023/08/13 10:47:39;;;;;;;9.95;1.73;;;20.30;99.90;;;;;;5063464;28;20044;-81
2023/08/13 10:50:07;;;;;;;6.20;1.65;;;20.50;99.90;;;;;;5072660;28;20090;-83
2023/08/13 10:52:33;;;;;;;5.75;1.70;;;20.50;99.90;;;;;;5072557;28;20045;-82
2023/08/13 10:55:00;;;;;;;8.05;1.17;;;20.50;99.90;;;;;;5071107;28;20040;-81
2023/08/13 10:57:29;;;;;;;6.65;1.60;;;20.40;99.90;;;;;;5073003;28;20105;-82
2023/08/13 10:59:56;;;;;;;9.27;1.33;;;20.40;99.90;;;;;;5072521;28;20032;-83
2023/08/13 11:02:22;;;;;;;8.88;3.17;;;20.40;99.90;;;;;;5069979;28;20048;-81
2023/08/13 11:04:47;;;;;;;5.72;1.67;;;20.40;99.90;;;;;;5074139;28;20401;-80
2023/08/13 11:07:14;;;;;;;6.15;1.90;;;20.40;99.90;;;;;;5070379;28;20037;-80
2023/08/13 11:09:42;;;;;;;8.48;1.40;;;20.50;99.90;;;;;;5071331;28;20519;-81
2023/08/13 11:12:10;;;;;;;8.55;1.73;;;20.60;99.90;;;;;;5072845;28;20037;-80
2023/08/13 11:14:37;;;;;;;6.85;1.77;;;20.90;99.90;;;;;;5073210;28;20044;-81
2023/08/13 11:17:03;;;;;;;6.15;1.65;;;21.00;99.90;;;;;;5071190;28;20078;-80
2023/08/13 11:19:29;;;;;;;8.70;1.63;;;21.20;99.90;;;;;;5075710;28;20108;-81
2023/08/13 11:21:56;;;;;;;3.90;1.33;;;21.30;99.90;;;;;;5082915;28;20033;-83
2023/08/13 11:24:22;;;;;;;2.67;0.98;;;21.20;99.90;;;;;;5078431;28;20149;-80
2023/08/13 11:26:58;;;;;;;8.48;1.52;;;21.20;99.90;;;;;;5073628;28;20047;-83
2023/08/13 11:29:24;;;;;;;5.18;1.17;;;21.20;99.90;;;;;;5072522;28;20462;-81
2023/08/13 11:31:50;;;;;;;4.13;1.20;;;21.10;99.90;;;;;;5069643;28;20043;-82
2023/08/13 11:34:17;;;;;;;6.22;1.15;;;21.10;99.90;;;;;;5071105;28;20037;-81
2023/08/13 11:36:47;;;;;;;5.75;1.35;;;21.30;99.90;;;;;;5069964;28;20036;-81
2023/08/13 11:39:13;;;;;;;3.80;1.85;;;21.00;99.90;;;;;;5072583;28;20049;-83
2023/08/13 11:41:39;;;;;;;5.63;1.38;;;20.80;99.90;;;;;;5070466;28;20404;-80
2023/08/13 11:44:10;;;;;;;5.20;1.40;;;20.90;99.90;;;;;;5053625;28;20044;-79
2023/08/13 11:46:54;;;;;;;5.97;1.52;;;20.90;99.90;;;;;;5054391;28;20072;-80
2023/08/13 11:49:20;;;;;;;7.47;1.17;;;20.80;99.90;;;;;;5069235;28;20086;-81
2023/08/13 11:51:45;;;;;;;6.85;1.13;;;20.90;99.90;;;;;;5069921;28;20037;-79
2023/08/13 11:54:11;;;;;;;6.65;1.20;;;20.90;99.90;;;;;;5071274;28;20106;-82
2023/08/13 11:56:39;;;;;;;7.88;1.58;;;20.90;99.90;;;;;;5070165;28;20041;-82
2023/08/13 11:59:08;;;;;;;5.35;1.48;;;20.90;99.90;;;;;;5068370;28;20041;-81
2023/08/13 12:01:34;;;;;;;4.22;1.15;;;21.00;99.90;;;;;;5069774;28;20051;-83
2023/08/13 12:04:04;;;;;;;6.63;1.90;;;21.00;99.90;;;;;;5071852;28;20040;-81
2023/08/13 12:06:34;;;;;;;3.67;1.50;;;20.90;99.90;;;;;;5052127;28;20594;-79
2023/08/13 12:08:59;;;;;;;3.78;1.00;;;20.90;99.90;;;;;;5069249;28;20044;-82
2023/08/13 12:11:25;;;;;;;5.95;1.58;;;20.90;99.90;;;;;;5068365;28;20044;-83
2023/08/13 12:13:51;;;;;;;5.25;0.90;;;20.80;99.90;;;;;;5051099;28;20078;-82
2023/08/13 12:16:16;;;;;;;5.38;1.38;;;20.90;99.90;;;;;;5069328;28;20041;-79
2023/08/13 12:18:42;;;;;;;3.75;1.00;;;20.90;99.90;;;;;;5060176;28;20036;-79
2023/08/13 12:21:08;;;;;;;4.38;1.00;;;20.90;99.90;;;;;;5069038;28;20036;-82
2023/08/13 12:23:33;;;;;;;5.97;0.80;;;21.00;99.90;;;;;;5068787;28;20052;-80
2023/08/13 12:26:01;;;;;;;3.17;0.80;;;21.00;99.90;;;;;;5068208;28;20051;-80
2023/08/13 12:28:27;;;;;;;2.92;0.85;;;21.00;99.90;;;;;;5067605;28;20060;-80
2023/08/13 12:30:53;;;;;;;5.25;0.95;;;21.00;99.90;;;;;;5067109;28;20371;-81
2023/08/13 12:33:19;;;;;;;4.60;0.65;;;21.00;99.90;;;;;;5067255;28;20624;-81
2023/08/13 12:35:44;;;;;;;3.85;0.70;;;21.10;99.90;;;;;;5068954;28;20090;-80
2023/08/13 12:38:10;;;;;;;4.78;0.50;;;21.10;99.90;;;;;;5068942;28;20036;-80
2023/08/13 12:40:36;;;;;;;3.67;0.63;;;21.20;99.90;;;;;;5068007;28;20131;-79